I68

Warren County / John Lane Field Airport

Lebanon, Ohio, USA
METAR KI68 190655Z AUTO 14003KT 10SM CLR M01/M01 A3008 RMK AO1 T10071007
Observed Flight Rules
Dec-19 @ 06:55 UTC (35 minutes ago) Visual Flight Rules
Wind Visibility Clouds
140° at 3 knots 10 miles
  • Clear skies
Temperatures Readings
Current -1°C / 30°F
Dewpoint -1°C / 30°F
Humidity 100%
Altimeter 30.08" Hg
Pressure 1019 hPa
Elevation 274
METAR KI68 190655Z AUTO 14003KT 10SM CLR M01/M01 A3008 RMK AO1 T10071007
Observed Flight Rules
Dec-19 @ 06:55 UTC
(35 minutes ago)
VFR
Wind Visibility
140° at 3 knots 10 miles
Clouds
  • Clear skies
Temperature Dewpoint
-1°C / 30°F -1°C / 30°F
Humidity Altimeter Pressure
100% 30.08" Hg 1019 hPa